PWSweather.com
Personal Weather Stations
Station Observations
GRANG4
Grangeville, ID 83530

Grangeville, ID 83530

Lat: 45.922, Lon: -116.126

Elevation: 3460

Station Type: Davis Vantage Pro 2 wireless

High Low Average
Temperature 51.7°F10.9°C 37.5°F3.1°C 43.4°F6.3°C
Dew Point 39.7°F4.3°C 33.0°F0.6°C 36.1°F2.3°C
Winds 14.8 mph 23.8 kmh Calm Calm 3.0 mph SW4.8 kmh SW
Wind Gusts 22.0 mph35.4 kmh -- 6.0 mph9.7 kmh
Humidity 86% 56% 76%
Pressure 30.03 in1016.9 mb 29.96 in1014.6 mb -
Precipitation 0.03 in0.8 mm - -
Hour Temp Dew Point Humidity Winds Wind Gusts Pressure Precip Precip Rate Daily Precip Total
12:02 AM 42.5°F5.8°C 37.4°F3.0°C 82% 1.8 mph WNW2.9 kmh WNW 5.0 mph8.0 kmh 29.96 in1014.6 mb 0.00 in0.0 mm 0.00 in/hr0.0 mm/hr 0.00 in0.0 mm
12:07 AM 42.5°F5.8°C 37.7°F3.2°C 83% 2.3 mph WNW3.7 kmh WNW 4.0 mph6.4 kmh 29.97 in1014.9 mb 0.00 in0.0 mm 0.00 in/hr0.0 mm/hr 0.00 in0.0 mm
12:12 AM 42.4°F5.8°C 37.6°F3.1°C 83% 3.3 mph NW5.3 kmh NW 5.0 mph8.0 kmh 29.96 in1014.6 mb 0.00 in0.0 mm 0.00 in/hr0.0 mm/hr 0.00 in0.0 mm
12:17 AM 42.4°F5.8°C 37.6°F3.1°C 83% 2.6 mph NW4.2 kmh NW 5.0 mph8.0 kmh 29.97 in1014.9 mb 0.00 in0.0 mm 0.00 in/hr0.0 mm/hr 0.00 in0.0 mm
12:22 AM 42.1°F5.6°C 37.0°F2.8°C 82% 1.9 mph NW3.1 kmh NW 7.0 mph11.3 kmh 29.97 in1014.9 mb 0.00 in0.0 mm 0.00 in/hr0.0 mm/hr 0.00 in0.0 mm
12:27 AM 41.9°F5.5°C 36.8°F2.7°C 82% 1.7 mph NW2.7 kmh NW 7.0 mph11.3 kmh 29.97 in1014.9 mb 0.00 in0.0 mm 0.00 in/hr0.0 mm/hr 0.00 in0.0 mm
12:32 AM 41.8°F5.4°C 36.7°F2.6°C 82% 1.1 mph NW1.8 kmh NW 5.0 mph8.0 kmh 29.97 in1014.9 mb 0.00 in0.0 mm 0.00 in/hr0.0 mm/hr 0.00 in0.0 mm
12:37 AM 41.6°F5.3°C 36.2°F2.3°C 81% 1.9 mph NW3.1 kmh NW 6.0 mph9.7 kmh 29.97 in1014.9 mb 0.00 in0.0 mm 0.00 in/hr0.0 mm/hr 0.00 in0.0 mm
12:42 AM 41.5°F5.3°C 36.1°F2.3°C 81% 2.0 mph NW3.2 kmh NW 6.0 mph9.7 kmh 29.97 in1014.9 mb 0.00 in0.0 mm 0.00 in/hr0.0 mm/hr 0.00 in0.0 mm
12:47 AM 41.4°F5.2°C 36.0°F2.2°C 81% 1.0 mph NW1.6 kmh NW 4.0 mph6.4 kmh 29.97 in1014.9 mb 0.00 in0.0 mm 0.00 in/hr0.0 mm/hr 0.00 in0.0 mm
12:52 AM 41.2°F5.1°C 35.8°F2.1°C 81% 1.3 mph NW2.1 kmh NW 4.0 mph6.4 kmh 29.97 in1014.9 mb 0.00 in0.0 mm 0.00 in/hr0.0 mm/hr 0.00 in0.0 mm
12:57 AM 41.0°F5.0°C 35.0°F1.7°C 79% 1.0 mph NW1.6 kmh NW 4.0 mph6.4 kmh 29.97 in1014.9 mb 0.00 in0.0 mm 0.00 in/hr0.0 mm/hr 0.00 in0.0 mm
01:02 AM 40.8°F4.9°C 35.1°F1.7°C 80% 1.3 mph NW2.1 kmh NW 4.0 mph6.4 kmh 29.97 in1014.9 mb 0.00 in0.0 mm 0.00 in/hr0.0 mm/hr 0.00 in0.0 mm
01:07 AM 40.5°F4.7°C 34.8°F1.6°C 80% 1.3 mph N2.1 kmh N 3.0 mph4.8 kmh 29.97 in1014.9 mb 0.00 in0.0 mm 0.00 in/hr0.0 mm/hr 0.00 in0.0 mm
01:12 AM 40.4°F4.7°C 34.7°F1.5°C 80% 1.4 mph NW2.3 kmh NW 3.0 mph4.8 kmh 29.98 in1015.2 mb 0.00 in0.0 mm 0.00 in/hr0.0 mm/hr 0.00 in0.0 mm
01:17 AM 40.3°F4.6°C 34.6°F1.4°C 80% 1.3 mph NW2.1 kmh NW 3.0 mph4.8 kmh 29.98 in1015.2 mb 0.01 in0.3 mm 0.12 in/hr3.0 mm/hr 0.01 in0.3 mm
01:22 AM 40.2°F4.6°C 34.2°F1.2°C 79% 2.1 mph NW3.4 kmh NW 4.0 mph6.4 kmh 29.98 in1015.2 mb 0.01 in0.3 mm 0.00 in/hr0.0 mm/hr 0.01 in0.3 mm
01:27 AM 39.9°F4.4°C 33.9°F1.1°C 79% 4.0 mph NW6.4 kmh NW 6.0 mph9.7 kmh 29.98 in1015.2 mb 0.01 in0.3 mm 0.00 in/hr0.0 mm/hr 0.01 in0.3 mm
01:32 AM 39.6°F4.2°C 33.6°F0.9°C 79% 3.7 mph NW6.0 kmh NW 8.0 mph12.9 kmh 29.98 in1015.2 mb 0.01 in0.3 mm 0.00 in/hr0.0 mm/hr 0.01 in0.3 mm
01:37 AM 39.4°F4.1°C 33.5°F0.8°C 79% 2.5 mph NW4.0 kmh NW 8.0 mph12.9 kmh 29.98 in1015.2 mb 0.01 in0.3 mm 0.00 in/hr0.0 mm/hr 0.01 in0.3 mm
01:42 AM 39.3°F4.1°C 33.4°F0.8°C 79% 2.5 mph NW4.0 kmh NW 5.0 mph8.0 kmh 29.99 in1015.6 mb 0.01 in0.3 mm 0.00 in/hr0.0 mm/hr 0.01 in0.3 mm
01:47 AM 39.4°F4.1°C 33.8°F1.0°C 80% 1.2 mph NW1.9 kmh NW 5.0 mph8.0 kmh 29.99 in1015.6 mb 0.01 in0.3 mm 0.00 in/hr0.0 mm/hr 0.01 in0.3 mm
01:52 AM 39.4°F4.1°C 33.5°F0.8°C 79% 1.0 mph NW1.6 kmh NW 4.0 mph6.4 kmh 29.99 in1015.6 mb 0.01 in0.3 mm 0.00 in/hr0.0 mm/hr 0.01 in0.3 mm
01:57 AM 39.4°F4.1°C 33.5°F0.8°C 79% 1.0 mph NW1.6 kmh NW 2.0 mph3.2 kmh 29.99 in1015.6 mb 0.01 in0.3 mm 0.00 in/hr0.0 mm/hr 0.01 in0.3 mm
02:02 AM 39.4°F4.1°C 33.8°F1.0°C 80% 1.2 mph NW1.9 kmh NW 2.0 mph3.2 kmh 29.99 in1015.6 mb 0.01 in0.3 mm 0.00 in/hr0.0 mm/hr 0.01 in0.3 mm
02:07 AM 39.4°F4.1°C 33.8°F1.0°C 80% 1.8 mph S2.9 kmh S 3.0 mph4.8 kmh 29.99 in1015.6 mb 0.01 in0.3 mm 0.00 in/hr0.0 mm/hr 0.01 in0.3 mm
02:12 AM 39.4°F4.1°C 33.8°F1.0°C 80% 1.9 mph S3.1 kmh S 3.0 mph4.8 kmh 29.99 in1015.6 mb 0.01 in0.3 mm 0.00 in/hr0.0 mm/hr 0.01 in0.3 mm
02:17 AM 39.3°F4.1°C 33.7°F0.9°C 80% 1.9 mph S3.1 kmh S 3.0 mph4.8 kmh 30.00 in1015.9 mb 0.00 in0.0 mm 0.00 in/hr0.0 mm/hr 0.01 in0.3 mm
02:22 AM 39.2°F4.0°C 33.9°F1.1°C 81% 2.2 mph S3.5 kmh S 3.0 mph4.8 kmh 30.00 in1015.9 mb 0.00 in0.0 mm 0.00 in/hr0.0 mm/hr 0.01 in0.3 mm
02:27 AM 39.1°F3.9°C 33.5°F0.8°C 80% 1.9 mph S3.1 kmh S 3.0 mph4.8 kmh 30.00 in1015.9 mb 0.00 in0.0 mm 0.00 in/hr0.0 mm/hr 0.01 in0.3 mm
02:32 AM 39.1°F3.9°C 33.8°F1.0°C 81% 1.4 mph S2.3 kmh S 3.0 mph4.8 kmh 30.00 in1015.9 mb 0.00 in0.0 mm 0.00 in/hr0.0 mm/hr 0.01 in0.3 mm
02:37 AM 39.1°F3.9°C 33.5°F0.8°C 80% 1.0 mph S1.6 kmh S 2.0 mph3.2 kmh 30.00 in1015.9 mb 0.00 in0.0 mm 0.00 in/hr0.0 mm/hr 0.01 in0.3 mm
02:42 AM 39.1°F3.9°C 33.5°F0.8°C 80% 1.2 mph S1.9 kmh S 2.0 mph3.2 kmh 29.99 in1015.6 mb 0.00 in0.0 mm 0.00 in/hr0.0 mm/hr 0.01 in0.3 mm
02:47 AM 39.0°F3.9°C 33.4°F0.8°C 80% 1.2 mph S1.9 kmh S 2.0 mph3.2 kmh 30.00 in1015.9 mb 0.00 in0.0 mm 0.00 in/hr0.0 mm/hr 0.01 in0.3 mm
02:52 AM 38.9°F3.8°C 33.3°F0.7°C 80% 1.6 mph S2.6 kmh S 3.0 mph4.8 kmh 30.00 in1015.9 mb 0.00 in0.0 mm 0.00 in/hr0.0 mm/hr 0.01 in0.3 mm
02:57 AM 38.9°F3.8°C 33.6°F0.9°C 81% 1.5 mph S2.4 kmh S 3.0 mph4.8 kmh 30.00 in1015.9 mb 0.00 in0.0 mm 0.00 in/hr0.0 mm/hr 0.01 in0.3 mm
03:02 AM 38.7°F3.7°C 33.7°F0.9°C 82% 2.6 mph ENE4.2 kmh ENE 6.0 mph9.7 kmh 30.00 in1015.9 mb 0.00 in0.0 mm 0.00 in/hr0.0 mm/hr 0.01 in0.3 mm
03:07 AM 38.7°F3.7°C 33.7°F0.9°C 82% 2.1 mph E3.4 kmh E 6.0 mph9.7 kmh 30.00 in1015.9 mb 0.00 in0.0 mm 0.00 in/hr0.0 mm/hr 0.01 in0.3 mm
03:12 AM 38.7°F3.7°C 34.0°F1.1°C 83% 1.4 mph E2.3 kmh E 3.0 mph4.8 kmh 30.00 in1015.9 mb 0.00 in0.0 mm 0.00 in/hr0.0 mm/hr 0.01 in0.3 mm
03:17 AM 38.6°F3.7°C 33.9°F1.1°C 83% 1.5 mph E2.4 kmh E 3.0 mph4.8 kmh 30.00 in1015.9 mb 0.00 in0.0 mm 0.00 in/hr0.0 mm/hr 0.01 in0.3 mm
03:22 AM 38.5°F3.6°C 33.8°F1.0°C 83% 1.3 mph E2.1 kmh E 3.0 mph4.8 kmh 30.00 in1015.9 mb 0.00 in0.0 mm 0.00 in/hr0.0 mm/hr 0.01 in0.3 mm
03:27 AM 38.4°F3.6°C 33.7°F0.9°C 83% 1.4 mph E2.3 kmh E 3.0 mph4.8 kmh 30.00 in1015.9 mb 0.00 in0.0 mm 0.00 in/hr0.0 mm/hr 0.01 in0.3 mm
03:32 AM 38.4°F3.6°C 33.7°F0.9°C 83% 2.8 mph E4.5 kmh E 4.0 mph6.4 kmh 30.01 in1016.3 mb 0.00 in0.0 mm 0.00 in/hr0.0 mm/hr 0.01 in0.3 mm
03:37 AM 38.3°F3.5°C 33.6°F0.9°C 83% 2.7 mph E4.3 kmh E 5.0 mph8.0 kmh 30.00 in1015.9 mb 0.00 in0.0 mm 0.00 in/hr0.0 mm/hr 0.01 in0.3 mm
03:42 AM 38.2°F3.4°C 33.5°F0.8°C 83% 2.5 mph E4.0 kmh E 6.0 mph9.7 kmh 30.00 in1015.9 mb 0.00 in0.0 mm 0.00 in/hr0.0 mm/hr 0.01 in0.3 mm
03:47 AM 38.1°F3.4°C 33.4°F0.8°C 83% 2.0 mph E3.2 kmh E 6.0 mph9.7 kmh 30.01 in1016.3 mb 0.00 in0.0 mm 0.00 in/hr0.0 mm/hr 0.01 in0.3 mm
03:52 AM 38.0°F3.3°C 33.3°F0.7°C 83% 2.8 mph E4.5 kmh E 5.0 mph8.0 kmh 30.01 in1016.3 mb 0.00 in0.0 mm 0.00 in/hr0.0 mm/hr 0.01 in0.3 mm
03:57 AM 37.9°F3.3°C 33.2°F0.7°C 83% 2.1 mph E3.4 kmh E 4.0 mph6.4 kmh 30.01 in1016.3 mb 0.00 in0.0 mm 0.00 in/hr0.0 mm/hr 0.01 in0.3 mm
04:02 AM 37.9°F3.3°C 33.2°F0.7°C 83% 1.9 mph E3.1 kmh E 4.0 mph6.4 kmh 30.01 in1016.3 mb 0.00 in0.0 mm 0.00 in/hr0.0 mm/hr 0.01 in0.3 mm
04:07 AM 37.9°F3.3°C 33.2°F0.7°C 83% 1.3 mph E2.1 kmh E 4.0 mph6.4 kmh 30.01 in1016.3 mb 0.00 in0.0 mm 0.00 in/hr0.0 mm/hr 0.01 in0.3 mm
04:12 AM 37.9°F3.3°C 33.2°F0.7°C 83% 1.7 mph E2.7 kmh E 4.0 mph6.4 kmh 30.01 in1016.3 mb 0.00 in0.0 mm 0.00 in/hr0.0 mm/hr 0.01 in0.3 mm
04:17 AM 37.8°F3.2°C 33.1°F0.6°C 83% 1.9 mph E3.1 kmh E 4.0 mph6.4 kmh 30.01 in1016.3 mb 0.00 in0.0 mm 0.00 in/hr0.0 mm/hr 0.01 in0.3 mm
04:22 AM 37.7°F3.2°C 33.0°F0.6°C 83% 3.1 mph E5.0 kmh E 6.0 mph9.7 kmh 30.01 in1016.3 mb 0.00 in0.0 mm 0.00 in/hr0.0 mm/hr 0.01 in0.3 mm
04:27 AM 37.7°F3.2°C 33.0°F0.6°C 83% 3.1 mph E5.0 kmh E 6.0 mph9.7 kmh 30.01 in1016.3 mb 0.00 in0.0 mm 0.00 in/hr0.0 mm/hr 0.01 in0.3 mm
04:32 AM 37.7°F3.2°C 33.0°F0.6°C 83% 2.7 mph ESE4.3 kmh ESE 5.0 mph8.0 kmh 30.01 in1016.3 mb 0.00 in0.0 mm 0.00 in/hr0.0 mm/hr 0.01 in0.3 mm
04:38 AM 37.7°F3.2°C 33.0°F0.6°C 83% 2.1 mph ESE3.4 kmh ESE 5.0 mph8.0 kmh 30.01 in1016.3 mb 0.00 in0.0 mm 0.00 in/hr0.0 mm/hr 0.01 in0.3 mm
04:42 AM 37.7°F3.2°C 33.3°F0.7°C 84% 2.3 mph ESE3.7 kmh ESE 3.0 mph4.8 kmh 30.01 in1016.3 mb 0.00 in0.0 mm 0.00 in/hr0.0 mm/hr 0.01 in0.3 mm
04:48 AM 37.6°F3.1°C 33.2°F0.7°C 84% 2.3 mph ESE3.7 kmh ESE 3.0 mph4.8 kmh 30.01 in1016.3 mb 0.00 in0.0 mm 0.00 in/hr0.0 mm/hr 0.01 in0.3 mm
04:53 AM 37.5°F3.1°C 33.1°F0.6°C 84% 2.2 mph ESE3.5 kmh ESE 4.0 mph6.4 kmh 30.01 in1016.3 mb 0.00 in0.0 mm 0.00 in/hr0.0 mm/hr 0.01 in0.3 mm
04:58 AM 37.6°F3.1°C 33.2°F0.7°C 84% 2.9 mph ESE4.7 kmh ESE 4.0 mph6.4 kmh 30.01 in1016.3 mb 0.00 in0.0 mm 0.00 in/hr0.0 mm/hr 0.01 in0.3 mm
05:03 AM 37.6°F3.1°C 33.2°F0.7°C 84% 2.5 mph ESE4.0 kmh ESE 4.0 mph6.4 kmh 30.01 in1016.3 mb 0.00 in0.0 mm 0.00 in/hr0.0 mm/hr 0.01 in0.3 mm
05:08 AM 37.6°F3.1°C 33.2°F0.7°C 84% 2.1 mph ESE3.4 kmh ESE 4.0 mph6.4 kmh 30.01 in1016.3 mb 0.00 in0.0 mm 0.00 in/hr0.0 mm/hr 0.01 in0.3 mm
05:13 AM 37.5°F3.1°C 33.1°F0.6°C 84% 1.2 mph ESE1.9 kmh ESE 3.0 mph4.8 kmh 30.01 in1016.3 mb 0.00 in0.0 mm 0.00 in/hr0.0 mm/hr 0.01 in0.3 mm
05:18 AM 37.6°F3.1°C 33.2°F0.7°C 84% 1.0 mph ESE1.6 kmh ESE 3.0 mph4.8 kmh 30.01 in1016.3 mb 0.00 in0.0 mm 0.00 in/hr0.0 mm/hr 0.01 in0.3 mm
05:23 AM 37.6°F3.1°C 33.2°F0.7°C 84% 1.2 mph ESE1.9 kmh ESE 2.0 mph3.2 kmh 30.01 in1016.3 mb 0.00 in0.0 mm 0.00 in/hr0.0 mm/hr 0.01 in0.3 mm
05:28 AM 37.7°F3.2°C 33.3°F0.7°C 84% 1.1 mph ESE1.8 kmh ESE 2.0 mph3.2 kmh 30.01 in1016.3 mb 0.00 in0.0 mm 0.00 in/hr0.0 mm/hr 0.01 in0.3 mm
05:33 AM 37.7°F3.2°C 33.3°F0.7°C 84% 1.1 mph ESE1.8 kmh ESE 2.0 mph3.2 kmh 30.01 in1016.3 mb 0.00 in0.0 mm 0.00 in/hr0.0 mm/hr 0.01 in0.3 mm
05:38 AM 37.8°F3.2°C 33.7°F0.9°C 85% 1.6 mph ESE2.6 kmh ESE 2.0 mph3.2 kmh 30.01 in1016.3 mb 0.00 in0.0 mm 0.00 in/hr0.0 mm/hr 0.01 in0.3 mm
05:43 AM 37.9°F3.3°C 34.1°F1.2°C 86% 1.4 mph ESE2.3 kmh ESE 2.0 mph3.2 kmh 30.01 in1016.3 mb 0.00 in0.0 mm 0.00 in/hr0.0 mm/hr 0.01 in0.3 mm
05:48 AM 38.1°F3.4°C 34.3°F1.3°C 86% 1.1 mph ESE1.8 kmh ESE 2.0 mph3.2 kmh 30.01 in1016.3 mb 0.00 in0.0 mm 0.00 in/hr0.0 mm/hr 0.01 in0.3 mm
05:53 AM 38.2°F3.4°C 34.1°F1.2°C 85% 1.6 mph ESE2.6 kmh ESE 2.0 mph3.2 kmh 30.02 in1016.6 mb 0.00 in0.0 mm 0.00 in/hr0.0 mm/hr 0.01 in0.3 mm
05:58 AM 38.3°F3.5°C 34.5°F1.4°C 86% 1.1 mph ESE1.8 kmh ESE 2.0 mph3.2 kmh 30.02 in1016.6 mb 0.00 in0.0 mm 0.00 in/hr0.0 mm/hr 0.01 in0.3 mm
06:03 AM 38.5°F3.6°C 34.4°F1.3°C 85% Calm Calm 2.0 mph3.2 kmh 30.02 in1016.6 mb 0.00 in0.0 mm 0.00 in/hr0.0 mm/hr 0.01 in0.3 mm
06:08 AM 38.5°F3.6°C 34.4°F1.3°C 85% Calm Calm 1.0 mph1.6 kmh 30.02 in1016.6 mb 0.00 in0.0 mm 0.00 in/hr0.0 mm/hr 0.01 in0.3 mm
06:13 AM 38.7°F3.7°C 34.6°F1.4°C 85% Calm Calm -- 30.02 in1016.6 mb 0.00 in0.0 mm 0.00 in/hr0.0 mm/hr 0.01 in0.3 mm
06:18 AM 38.9°F3.8°C 35.0°F1.7°C 86% Calm Calm 1.0 mph1.6 kmh 30.02 in1016.6 mb 0.00 in0.0 mm 0.00 in/hr0.0 mm/hr 0.01 in0.3 mm
06:23 AM 39.4°F4.1°C 35.5°F1.9°C 86% Calm Calm 1.0 mph1.6 kmh 30.02 in1016.6 mb 0.00 in0.0 mm 0.00 in/hr0.0 mm/hr 0.01 in0.3 mm
06:28 AM 39.8°F4.3°C 35.9°F2.2°C 86% Calm Calm -- 30.02 in1016.6 mb 0.00 in0.0 mm 0.00 in/hr0.0 mm/hr 0.01 in0.3 mm
06:33 AM 40.2°F4.6°C 35.7°F2.1°C 84% Calm Calm -- 30.02 in1016.6 mb 0.00 in0.0 mm 0.00 in/hr0.0 mm/hr 0.01 in0.3 mm
06:38 AM 40.5°F4.7°C 35.4°F1.9°C 82% Calm Calm -- 30.02 in1016.6 mb 0.00 in0.0 mm 0.00 in/hr0.0 mm/hr 0.01 in0.3 mm
06:43 AM 40.7°F4.8°C 35.3°F1.8°C 81% Calm Calm -- 30.02 in1016.6 mb 0.00 in0.0 mm 0.00 in/hr0.0 mm/hr 0.01 in0.3 mm
06:48 AM 40.9°F4.9°C 35.5°F1.9°C 81% 2.3 mph ESE3.7 kmh ESE 3.0 mph4.8 kmh 30.02 in1016.6 mb 0.00 in0.0 mm 0.00 in/hr0.0 mm/hr 0.01 in0.3 mm
06:53 AM 41.1°F5.1°C 36.0°F2.2°C 82% 1.2 mph ESE1.9 kmh ESE 3.0 mph4.8 kmh 30.02 in1016.6 mb 0.00 in0.0 mm 0.00 in/hr0.0 mm/hr 0.01 in0.3 mm
06:58 AM 41.4°F5.2°C 36.0°F2.2°C 81% 3.1 mph WSW5.0 kmh WSW 5.0 mph8.0 kmh 30.02 in1016.6 mb 0.00 in0.0 mm 0.00 in/hr0.0 mm/hr 0.01 in0.3 mm
07:03 AM 41.5°F5.3°C 36.1°F2.3°C 81% 2.6 mph W4.2 kmh W 5.0 mph8.0 kmh 30.02 in1016.6 mb 0.00 in0.0 mm 0.00 in/hr0.0 mm/hr 0.01 in0.3 mm
07:08 AM 41.6°F5.3°C 35.9°F2.2°C 80% 2.6 mph WNW4.2 kmh WNW 4.0 mph6.4 kmh 30.02 in1016.6 mb 0.00 in0.0 mm 0.00 in/hr0.0 mm/hr 0.01 in0.3 mm
07:13 AM 41.8°F5.4°C 36.1°F2.3°C 80% 2.3 mph W3.7 kmh W 5.0 mph8.0 kmh 30.02 in1016.6 mb 0.01 in0.3 mm 0.12 in/hr3.0 mm/hr 0.02 in0.5 mm
07:18 AM 42.0°F5.6°C 36.3°F2.4°C 80% 3.3 mph W5.3 kmh W 5.0 mph8.0 kmh 30.03 in1016.9 mb 0.01 in0.3 mm 0.00 in/hr0.0 mm/hr 0.02 in0.5 mm
07:23 AM 42.1°F5.6°C 36.7°F2.6°C 81% 2.7 mph W4.3 kmh W 5.0 mph8.0 kmh 30.02 in1016.6 mb 0.01 in0.3 mm 0.00 in/hr0.0 mm/hr 0.02 in0.5 mm
07:28 AM 41.9°F5.5°C 35.9°F2.2°C 79% 2.7 mph W4.3 kmh W 4.0 mph6.4 kmh 30.03 in1016.9 mb 0.01 in0.3 mm 0.00 in/hr0.0 mm/hr 0.02 in0.5 mm
07:33 AM 41.8°F5.4°C 35.8°F2.1°C 79% 2.6 mph WNW4.2 kmh WNW 5.0 mph8.0 kmh 30.03 in1016.9 mb 0.01 in0.3 mm 0.00 in/hr0.0 mm/hr 0.02 in0.5 mm
07:38 AM 42.0°F5.6°C 36.6°F2.6°C 81% 2.5 mph WNW4.0 kmh WNW 5.0 mph8.0 kmh 30.02 in1016.6 mb 0.01 in0.3 mm 0.00 in/hr0.0 mm/hr 0.02 in0.5 mm
07:43 AM 42.2°F5.7°C 36.2°F2.3°C 79% 3.2 mph WNW5.1 kmh WNW 4.0 mph6.4 kmh 30.03 in1016.9 mb 0.01 in0.3 mm 0.00 in/hr0.0 mm/hr 0.02 in0.5 mm
07:48 AM 42.4°F5.8°C 36.7°F2.6°C 80% 3.1 mph WNW5.0 kmh WNW 6.0 mph9.7 kmh 30.02 in1016.6 mb 0.01 in0.3 mm 0.00 in/hr0.0 mm/hr 0.02 in0.5 mm
07:53 AM 42.6°F5.9°C 36.9°F2.7°C 80% 3.6 mph WNW5.8 kmh WNW 6.0 mph9.7 kmh 30.03 in1016.9 mb 0.01 in0.3 mm 0.00 in/hr0.0 mm/hr 0.02 in0.5 mm
07:59 AM 42.8°F6.0°C 36.8°F2.7°C 79% 3.2 mph WNW5.1 kmh WNW 7.0 mph11.3 kmh 30.02 in1016.6 mb 0.01 in0.3 mm 0.00 in/hr0.0 mm/hr 0.02 in0.5 mm
08:04 AM 42.9°F6.1°C 36.5°F2.5°C 78% 2.0 mph WNW3.2 kmh WNW 7.0 mph11.3 kmh 30.02 in1016.6 mb 0.01 in0.3 mm 0.00 in/hr0.0 mm/hr 0.02 in0.5 mm
08:09 AM 43.2°F6.2°C 36.5°F2.5°C 77% 4.4 mph W7.1 kmh W 7.0 mph11.3 kmh 30.03 in1016.9 mb 0.01 in0.3 mm 0.00 in/hr0.0 mm/hr 0.02 in0.5 mm
08:14 AM 43.1°F6.2°C 36.4°F2.4°C 77% 3.1 mph WNW5.0 kmh WNW 7.0 mph11.3 kmh 30.03 in1016.9 mb 0.00 in0.0 mm 0.00 in/hr0.0 mm/hr 0.02 in0.5 mm
08:19 AM 43.0°F6.1°C 36.3°F2.4°C 77% 4.2 mph WNW6.8 kmh WNW 8.0 mph12.9 kmh 30.03 in1016.9 mb 0.00 in0.0 mm 0.00 in/hr0.0 mm/hr 0.02 in0.5 mm
08:24 AM 43.2°F6.2°C 36.5°F2.5°C 77% 3.3 mph WNW5.3 kmh WNW 8.0 mph12.9 kmh 30.02 in1016.6 mb 0.00 in0.0 mm 0.00 in/hr0.0 mm/hr 0.02 in0.5 mm
08:29 AM 43.6°F6.4°C 36.6°F2.6°C 76% 4.1 mph W6.6 kmh W 8.0 mph12.9 kmh 30.02 in1016.6 mb 0.00 in0.0 mm 0.00 in/hr0.0 mm/hr 0.02 in0.5 mm
08:34 AM 43.8°F6.6°C 36.1°F2.3°C 74% 4.9 mph W7.9 kmh W 8.0 mph12.9 kmh 30.03 in1016.9 mb 0.00 in0.0 mm 0.00 in/hr0.0 mm/hr 0.02 in0.5 mm
08:39 AM 43.9°F6.6°C 35.9°F2.2°C 73% 4.3 mph NW6.9 kmh NW 8.0 mph12.9 kmh 30.02 in1016.6 mb 0.00 in0.0 mm 0.00 in/hr0.0 mm/hr 0.02 in0.5 mm
08:44 AM 43.9°F6.6°C 36.5°F2.5°C 75% 2.9 mph NW4.7 kmh NW 8.0 mph12.9 kmh 30.03 in1016.9 mb 0.00 in0.0 mm 0.00 in/hr0.0 mm/hr 0.02 in0.5 mm
08:49 AM 44.1°F6.7°C 36.7°F2.6°C 75% 4.7 mph NW7.6 kmh NW 7.0 mph11.3 kmh 30.02 in1016.6 mb 0.00 in0.0 mm 0.00 in/hr0.0 mm/hr 0.02 in0.5 mm
08:54 AM 44.8°F7.1°C 37.1°F2.8°C 74% 3.3 mph NW5.3 kmh NW 7.0 mph11.3 kmh 30.03 in1016.9 mb 0.00 in0.0 mm 0.00 in/hr0.0 mm/hr 0.02 in0.5 mm
08:59 AM 45.4°F7.4°C 37.0°F2.8°C 72% 2.5 mph NW4.0 kmh NW 6.0 mph9.7 kmh 30.02 in1016.6 mb 0.00 in0.0 mm 0.00 in/hr0.0 mm/hr 0.02 in0.5 mm
09:04 AM 45.6°F7.6°C 36.8°F2.7°C 71% 1.5 mph NW2.4 kmh NW 6.0 mph9.7 kmh 30.02 in1016.6 mb 0.00 in0.0 mm 0.00 in/hr0.0 mm/hr 0.02 in0.5 mm
09:09 AM 45.7°F7.6°C 37.3°F2.9°C 72% 3.8 mph WNW6.1 kmh WNW 6.0 mph9.7 kmh 30.02 in1016.6 mb 0.00 in0.0 mm 0.00 in/hr0.0 mm/hr 0.02 in0.5 mm
09:14 AM 45.8°F7.7°C 38.1°F3.4°C 74% 1.0 mph NW1.6 kmh NW 6.0 mph9.7 kmh 30.02 in1016.6 mb 0.00 in0.0 mm 0.00 in/hr0.0 mm/hr 0.02 in0.5 mm
09:19 AM 45.9°F7.7°C 37.5°F3.1°C 72% 1.3 mph NW2.1 kmh NW 4.0 mph6.4 kmh 30.03 in1016.9 mb 0.00 in0.0 mm 0.00 in/hr0.0 mm/hr 0.02 in0.5 mm
09:24 AM 45.8°F7.7°C 37.0°F2.8°C 71% 1.4 mph WNW2.3 kmh WNW 5.0 mph8.0 kmh 30.03 in1016.9 mb 0.00 in0.0 mm 0.00 in/hr0.0 mm/hr 0.02 in0.5 mm
09:29 AM 45.7°F7.6°C 36.9°F2.7°C 71% 2.6 mph WSW4.2 kmh WSW 5.0 mph8.0 kmh 30.03 in1016.9 mb 0.00 in0.0 mm 0.00 in/hr0.0 mm/hr 0.02 in0.5 mm
09:34 AM 45.8°F7.7°C 37.4°F3.0°C 72% 1.9 mph W3.1 kmh W 4.0 mph6.4 kmh 30.03 in1016.9 mb 0.00 in0.0 mm 0.00 in/hr0.0 mm/hr 0.02 in0.5 mm
09:39 AM 45.8°F7.7°C 36.3°F2.4°C 69% 2.0 mph W3.2 kmh W 4.0 mph6.4 kmh 30.02 in1016.6 mb 0.00 in0.0 mm 0.00 in/hr0.0 mm/hr 0.02 in0.5 mm
09:44 AM 46.0°F7.8°C 37.2°F2.9°C 71% 2.3 mph WNW3.7 kmh WNW 5.0 mph8.0 kmh 30.03 in1016.9 mb 0.00 in0.0 mm 0.00 in/hr0.0 mm/hr 0.02 in0.5 mm
09:49 AM 46.7°F8.2°C 37.2°F2.9°C 69% 1.4 mph WNW2.3 kmh WNW 5.0 mph8.0 kmh 30.03 in1016.9 mb 0.00 in0.0 mm 0.00 in/hr0.0 mm/hr 0.02 in0.5 mm
09:54 AM 47.0°F8.3°C 37.1°F2.8°C 68% 2.8 mph WNW4.5 kmh WNW 4.0 mph6.4 kmh 30.03 in1016.9 mb 0.00 in0.0 mm 0.00 in/hr0.0 mm/hr 0.02 in0.5 mm
09:59 AM 47.4°F8.6°C 38.2°F3.4°C 70% 1.0 mph W1.6 kmh W 5.0 mph8.0 kmh 30.03 in1016.9 mb 0.00 in0.0 mm 0.00 in/hr0.0 mm/hr 0.02 in0.5 mm
10:04 AM 47.7°F8.7°C 38.8°F3.8°C 71% 1.0 mph SE1.6 kmh SE 5.0 mph8.0 kmh 30.03 in1016.9 mb 0.00 in0.0 mm 0.00 in/hr0.0 mm/hr 0.02 in0.5 mm
10:09 AM 47.9°F8.8°C 39.0°F3.9°C 71% 1.7 mph E2.7 kmh E 3.0 mph4.8 kmh 30.03 in1016.9 mb 0.00 in0.0 mm 0.00 in/hr0.0 mm/hr 0.02 in0.5 mm
10:14 AM 47.9°F8.8°C 37.9°F3.3°C 68% 2.2 mph NE3.5 kmh NE 4.0 mph6.4 kmh 30.02 in1016.6 mb 0.00 in0.0 mm 0.00 in/hr0.0 mm/hr 0.02 in0.5 mm
10:19 AM 47.8°F8.8°C 38.6°F3.7°C 70% 3.1 mph NE5.0 kmh NE 5.0 mph8.0 kmh 30.02 in1016.6 mb 0.00 in0.0 mm 0.00 in/hr0.0 mm/hr 0.02 in0.5 mm
10:25 AM 48.0°F8.9°C 38.0°F3.3°C 68% 1.9 mph NE3.1 kmh NE 5.0 mph8.0 kmh 30.02 in1016.6 mb 0.00 in0.0 mm 0.00 in/hr0.0 mm/hr 0.02 in0.5 mm
10:30 AM 48.3°F9.1°C 38.3°F3.5°C 68% 2.8 mph NE4.5 kmh NE 4.0 mph6.4 kmh 30.02 in1016.6 mb 0.00 in0.0 mm 0.00 in/hr0.0 mm/hr 0.02 in0.5 mm
10:35 AM 48.6°F9.2°C 37.5°F3.1°C 65% 2.7 mph SW4.3 kmh SW 5.0 mph8.0 kmh 30.02 in1016.6 mb 0.00 in0.0 mm 0.00 in/hr0.0 mm/hr 0.02 in0.5 mm
10:40 AM 48.8°F9.3°C 38.4°F3.6°C 67% 2.6 mph NW4.2 kmh NW 6.0 mph9.7 kmh 30.01 in1016.3 mb 0.00 in0.0 mm 0.00 in/hr0.0 mm/hr 0.02 in0.5 mm
10:45 AM 49.0°F9.4°C 39.0°F3.9°C 68% 1.6 mph N2.6 kmh N 6.0 mph9.7 kmh 30.01 in1016.3 mb 0.00 in0.0 mm 0.00 in/hr0.0 mm/hr 0.02 in0.5 mm
10:50 AM 48.8°F9.3°C 38.8°F3.8°C 68% 1.0 mph N1.6 kmh N 3.0 mph4.8 kmh 30.01 in1016.3 mb 0.00 in0.0 mm 0.00 in/hr0.0 mm/hr 0.02 in0.5 mm
10:55 AM 49.0°F9.4°C 38.6°F3.7°C 67% 2.2 mph N3.5 kmh N 4.0 mph6.4 kmh 30.01 in1016.3 mb 0.00 in0.0 mm 0.00 in/hr0.0 mm/hr 0.02 in0.5 mm
11:00 AM 49.1°F9.5°C 38.3°F3.5°C 66% 1.3 mph N2.1 kmh N 6.0 mph9.7 kmh 30.01 in1016.3 mb 0.00 in0.0 mm 0.00 in/hr0.0 mm/hr 0.02 in0.5 mm
11:05 AM 49.5°F9.7°C 36.7°F2.6°C 61% 2.9 mph NW4.7 kmh NW 6.0 mph9.7 kmh 30.00 in1015.9 mb 0.00 in0.0 mm 0.00 in/hr0.0 mm/hr 0.02 in0.5 mm
11:10 AM 49.8°F9.9°C 35.7°F2.1°C 58% 2.6 mph NW4.2 kmh NW 6.0 mph9.7 kmh 30.00 in1015.9 mb 0.00 in0.0 mm 0.00 in/hr0.0 mm/hr 0.02 in0.5 mm
11:15 AM 50.1°F10.1°C 36.8°F2.7°C 60% 1.0 mph NW1.6 kmh NW 6.0 mph9.7 kmh 30.00 in1015.9 mb 0.00 in0.0 mm 0.00 in/hr0.0 mm/hr 0.02 in0.5 mm
11:20 AM 50.4°F10.2°C 38.4°F3.6°C 63% 2.4 mph S3.9 kmh S 6.0 mph9.7 kmh 30.00 in1015.9 mb 0.00 in0.0 mm 0.00 in/hr0.0 mm/hr 0.02 in0.5 mm
11:25 AM 50.5°F10.3°C 36.8°F2.7°C 59% 4.8 mph WNW7.7 kmh WNW 10.0 mph16.1 kmh 30.00 in1015.9 mb 0.00 in0.0 mm 0.00 in/hr0.0 mm/hr 0.02 in0.5 mm
11:30 AM 49.9°F9.9°C 36.2°F2.3°C 59% 6.7 mph W10.8 kmh W 16.0 mph25.7 kmh 30.00 in1015.9 mb 0.00 in0.0 mm 0.00 in/hr0.0 mm/hr 0.02 in0.5 mm
11:35 AM 49.0°F9.4°C 38.2°F3.4°C 66% 4.5 mph NW7.2 kmh NW 16.0 mph25.7 kmh 29.99 in1015.6 mb 0.00 in0.0 mm 0.00 in/hr0.0 mm/hr 0.02 in0.5 mm
11:40 AM 48.2°F9.0°C 38.2°F3.4°C 68% 6.8 mph NW10.9 kmh NW 12.0 mph19.3 kmh 30.00 in1015.9 mb 0.00 in0.0 mm 0.00 in/hr0.0 mm/hr 0.02 in0.5 mm
11:45 AM 47.5°F8.6°C 37.9°F3.3°C 69% 3.3 mph NW5.3 kmh NW 12.0 mph19.3 kmh 30.00 in1015.9 mb 0.00 in0.0 mm 0.00 in/hr0.0 mm/hr 0.02 in0.5 mm
11:50 AM 47.2°F8.4°C 39.1°F3.9°C 73% 3.7 mph NW6.0 kmh NW 9.0 mph14.5 kmh 30.00 in1015.9 mb 0.00 in0.0 mm 0.00 in/hr0.0 mm/hr 0.02 in0.5 mm
11:55 AM 47.1°F8.4°C 39.0°F3.9°C 73% 3.8 mph NW6.1 kmh NW 7.0 mph11.3 kmh 30.00 in1015.9 mb 0.00 in0.0 mm 0.00 in/hr0.0 mm/hr 0.02 in0.5 mm
12:00 PM 47.3°F8.5°C 38.5°F3.6°C 71% 3.7 mph W6.0 kmh W 7.0 mph11.3 kmh 30.00 in1015.9 mb 0.00 in0.0 mm 0.00 in/hr0.0 mm/hr 0.02 in0.5 mm
12:05 PM 47.4°F8.6°C 37.8°F3.2°C 69% 3.8 mph WSW6.1 kmh WSW 8.0 mph12.9 kmh 30.00 in1015.9 mb 0.00 in0.0 mm 0.00 in/hr0.0 mm/hr 0.02 in0.5 mm
12:10 PM 47.6°F8.7°C 38.8°F3.8°C 71% 3.4 mph W5.5 kmh W 8.0 mph12.9 kmh 30.01 in1016.3 mb 0.00 in0.0 mm 0.00 in/hr0.0 mm/hr 0.02 in0.5 mm
12:15 PM 47.7°F8.7°C 37.4°F3.0°C 67% 5.9 mph W9.5 kmh W 9.0 mph14.5 kmh 30.01 in1016.3 mb 0.00 in0.0 mm 0.00 in/hr0.0 mm/hr 0.02 in0.5 mm
12:20 PM 47.6°F8.7°C 37.7°F3.2°C 68% 6.7 mph W10.8 kmh W 11.0 mph17.7 kmh 30.01 in1016.3 mb 0.00 in0.0 mm 0.00 in/hr0.0 mm/hr 0.02 in0.5 mm
12:25 PM 46.6°F8.1°C 36.7°F2.6°C 68% 13.2 mph W21.2 kmh W 21.0 mph33.8 kmh 30.01 in1016.3 mb 0.00 in0.0 mm 0.00 in/hr0.0 mm/hr 0.02 in0.5 mm
12:30 PM 44.6°F7.0°C 36.2°F2.3°C 72% 14.8 mph WNW23.8 kmh WNW 22.0 mph35.4 kmh 30.02 in1016.6 mb 0.01 in0.3 mm 0.12 in/hr3.0 mm/hr 0.03 in0.8 mm
12:35 PM 43.6°F6.4°C 36.3°F2.4°C 75% 14.2 mph NW22.9 kmh NW 22.0 mph35.4 kmh 30.02 in1016.6 mb 0.01 in0.3 mm 0.00 in/hr0.0 mm/hr 0.03 in0.8 mm
12:40 PM 43.3°F6.3°C 36.3°F2.4°C 76% 11.8 mph NW19.0 kmh NW 20.0 mph32.2 kmh 30.02 in1016.6 mb 0.01 in0.3 mm 0.00 in/hr0.0 mm/hr 0.03 in0.8 mm
12:45 PM 43.2°F6.2°C 35.9°F2.2°C 75% 8.2 mph NW13.2 kmh NW 17.0 mph27.4 kmh 30.02 in1016.6 mb 0.01 in0.3 mm 0.00 in/hr0.0 mm/hr 0.03 in0.8 mm
12:50 PM 43.2°F6.2°C 35.9°F2.2°C 75% 5.4 mph WNW8.7 kmh WNW 15.0 mph24.1 kmh 30.02 in1016.6 mb 0.01 in0.3 mm 0.00 in/hr0.0 mm/hr 0.03 in0.8 mm
12:55 PM 43.4°F6.3°C 35.7°F2.1°C 74% 3.7 mph W6.0 kmh W 10.0 mph16.1 kmh 30.03 in1016.9 mb 0.01 in0.3 mm 0.00 in/hr0.0 mm/hr 0.03 in0.8 mm
01:00 PM 43.7°F6.5°C 36.4°F2.4°C 75% 2.8 mph WSW4.5 kmh WSW 7.0 mph11.3 kmh 30.03 in1016.9 mb 0.01 in0.3 mm 0.00 in/hr0.0 mm/hr 0.03 in0.8 mm
01:05 PM 44.3°F6.8°C 37.6°F3.1°C 77% 1.9 mph SW3.1 kmh SW 6.0 mph9.7 kmh 30.02 in1016.6 mb 0.01 in0.3 mm 0.00 in/hr0.0 mm/hr 0.03 in0.8 mm
01:10 PM 45.4°F7.4°C 39.6°F4.2°C 80% 2.1 mph SW3.4 kmh SW 6.0 mph9.7 kmh 30.02 in1016.6 mb 0.01 in0.3 mm 0.00 in/hr0.0 mm/hr 0.03 in0.8 mm
01:15 PM 46.2°F7.9°C 39.4°F4.1°C 77% 1.7 mph S2.7 kmh S 7.0 mph11.3 kmh 30.02 in1016.6 mb 0.01 in0.3 mm 0.00 in/hr0.0 mm/hr 0.03 in0.8 mm
01:20 PM 46.8°F8.2°C 38.7°F3.7°C 73% 2.0 mph SSE3.2 kmh SSE 7.0 mph11.3 kmh 30.01 in1016.3 mb 0.01 in0.3 mm 0.00 in/hr0.0 mm/hr 0.03 in0.8 mm
01:25 PM 47.3°F8.5°C 38.8°F3.8°C 72% 2.6 mph S4.2 kmh S 4.0 mph6.4 kmh 30.01 in1016.3 mb 0.01 in0.3 mm 0.00 in/hr0.0 mm/hr 0.03 in0.8 mm
01:30 PM 47.9°F8.8°C 39.4°F4.1°C 72% 1.5 mph SW2.4 kmh SW 4.0 mph6.4 kmh 30.01 in1016.3 mb 0.00 in0.0 mm 0.00 in/hr0.0 mm/hr 0.03 in0.8 mm
01:35 PM 48.5°F9.2°C 39.6°F4.2°C 71% 2.8 mph WNW4.5 kmh WNW 6.0 mph9.7 kmh 30.01 in1016.3 mb 0.00 in0.0 mm 0.00 in/hr0.0 mm/hr 0.03 in0.8 mm
01:40 PM 49.0°F9.4°C 39.4°F4.1°C 69% 3.1 mph W5.0 kmh W 6.0 mph9.7 kmh 30.00 in1015.9 mb 0.00 in0.0 mm 0.00 in/hr0.0 mm/hr 0.03 in0.8 mm
01:45 PM 49.3°F9.6°C 38.9°F3.8°C 67% 4.2 mph WNW6.8 kmh WNW 6.0 mph9.7 kmh 30.01 in1016.3 mb 0.00 in0.0 mm 0.00 in/hr0.0 mm/hr 0.03 in0.8 mm
01:50 PM 49.5°F9.7°C 39.1°F3.9°C 67% 6.2 mph W10.0 kmh W 8.0 mph12.9 kmh 30.00 in1015.9 mb 0.00 in0.0 mm 0.00 in/hr0.0 mm/hr 0.03 in0.8 mm
01:55 PM 49.5°F9.7°C 39.1°F3.9°C 67% 2.0 mph W3.2 kmh W 8.0 mph12.9 kmh 30.00 in1015.9 mb 0.00 in0.0 mm 0.00 in/hr0.0 mm/hr 0.03 in0.8 mm
02:00 PM 49.9°F9.9°C 39.1°F3.9°C 66% 2.9 mph SW4.7 kmh SW 7.0 mph11.3 kmh 30.00 in1015.9 mb 0.00 in0.0 mm 0.00 in/hr0.0 mm/hr 0.03 in0.8 mm
02:05 PM 50.3°F10.2°C 39.1°F3.9°C 65% 2.3 mph SW3.7 kmh SW 7.0 mph11.3 kmh 30.00 in1015.9 mb 0.00 in0.0 mm 0.00 in/hr0.0 mm/hr 0.03 in0.8 mm
02:10 PM 50.6°F10.3°C 38.2°F3.4°C 62% 2.0 mph WSW3.2 kmh WSW 6.0 mph9.7 kmh 30.00 in1015.9 mb 0.00 in0.0 mm 0.00 in/hr0.0 mm/hr 0.03 in0.8 mm
02:15 PM 50.9°F10.5°C 39.3°F4.1°C 64% 2.0 mph WSW3.2 kmh WSW 6.0 mph9.7 kmh 30.00 in1015.9 mb 0.00 in0.0 mm 0.00 in/hr0.0 mm/hr 0.03 in0.8 mm
02:21 PM 51.2°F10.7°C 37.9°F3.3°C 60% 5.7 mph SW9.2 kmh SW 9.0 mph14.5 kmh 30.00 in1015.9 mb 0.00 in0.0 mm 0.00 in/hr0.0 mm/hr 0.03 in0.8 mm
02:25 PM 51.3°F10.7°C 37.1°F2.8°C 58% 2.5 mph WSW4.0 kmh WSW 9.0 mph14.5 kmh 29.99 in1015.6 mb 0.00 in0.0 mm 0.00 in/hr0.0 mm/hr 0.03 in0.8 mm
02:31 PM 51.3°F10.7°C 37.1°F2.8°C 58% 1.8 mph WSW2.9 kmh WSW 6.0 mph9.7 kmh 29.99 in1015.6 mb 0.00 in0.0 mm 0.00 in/hr0.0 mm/hr 0.03 in0.8 mm
02:36 PM 51.5°F10.8°C 37.7°F3.2°C 59% 1.1 mph NW1.8 kmh NW 6.0 mph9.7 kmh 29.99 in1015.6 mb 0.00 in0.0 mm 0.00 in/hr0.0 mm/hr 0.03 in0.8 mm
02:41 PM 51.6°F10.9°C 37.8°F3.2°C 59% 2.4 mph NW3.9 kmh NW 6.0 mph9.7 kmh 29.99 in1015.6 mb 0.00 in0.0 mm 0.00 in/hr0.0 mm/hr 0.03 in0.8 mm
02:46 PM 51.7°F10.9°C 37.5°F3.1°C 58% 2.6 mph NW4.2 kmh NW 5.0 mph8.0 kmh 29.99 in1015.6 mb 0.00 in0.0 mm 0.00 in/hr0.0 mm/hr 0.03 in0.8 mm
02:51 PM 51.5°F10.8°C 36.4°F2.4°C 56% 5.1 mph W8.2 kmh W 7.0 mph11.3 kmh 29.99 in1015.6 mb 0.00 in0.0 mm 0.00 in/hr0.0 mm/hr 0.03 in0.8 mm
02:56 PM 51.3°F10.7°C 36.6°F2.6°C 57% 2.8 mph WNW4.5 kmh WNW 7.0 mph11.3 kmh 29.99 in1015.6 mb 0.00 in0.0 mm 0.00 in/hr0.0 mm/hr 0.03 in0.8 mm
03:01 PM 51.5°F10.8°C 38.2°F3.4°C 60% 4.2 mph N6.8 kmh N 8.0 mph12.9 kmh 29.99 in1015.6 mb 0.00 in0.0 mm 0.00 in/hr0.0 mm/hr 0.03 in0.8 mm
03:06 PM 51.2°F10.7°C 39.1°F3.9°C 63% 6.1 mph N9.8 kmh N 11.0 mph17.7 kmh 29.99 in1015.6 mb 0.00 in0.0 mm 0.00 in/hr0.0 mm/hr 0.03 in0.8 mm
03:11 PM 50.2°F10.1°C 39.0°F3.9°C 65% 4.0 mph N6.4 kmh N 14.0 mph22.5 kmh 29.99 in1015.6 mb 0.00 in0.0 mm 0.00 in/hr0.0 mm/hr 0.03 in0.8 mm
03:16 PM 49.7°F9.8°C 39.7°F4.3°C 68% 8.4 mph NNE13.5 kmh NNE 14.0 mph22.5 kmh 29.99 in1015.6 mb 0.00 in0.0 mm 0.00 in/hr0.0 mm/hr 0.03 in0.8 mm
03:21 PM 49.0°F9.4°C 39.4°F4.1°C 69% 7.8 mph N12.6 kmh N 11.0 mph17.7 kmh 29.99 in1015.6 mb 0.00 in0.0 mm 0.00 in/hr0.0 mm/hr 0.03 in0.8 mm
03:26 PM 48.8°F9.3°C 39.2°F4.0°C 69% 4.9 mph NNE7.9 kmh NNE 11.0 mph17.7 kmh 29.99 in1015.6 mb 0.00 in0.0 mm 0.00 in/hr0.0 mm/hr 0.03 in0.8 mm
03:31 PM 48.4°F9.1°C 39.2°F4.0°C 70% 7.5 mph N12.1 kmh N 10.0 mph16.1 kmh 29.99 in1015.6 mb 0.00 in0.0 mm 0.00 in/hr0.0 mm/hr 0.03 in0.8 mm
03:36 PM 48.3°F9.1°C 39.1°F3.9°C 70% 3.9 mph NNE6.3 kmh NNE 10.0 mph16.1 kmh 29.99 in1015.6 mb 0.00 in0.0 mm 0.00 in/hr0.0 mm/hr 0.03 in0.8 mm
03:41 PM 48.1°F8.9°C 38.9°F3.8°C 70% 4.1 mph NE6.6 kmh NE 8.0 mph12.9 kmh 29.99 in1015.6 mb 0.00 in0.0 mm 0.00 in/hr0.0 mm/hr 0.03 in0.8 mm
03:46 PM 48.2°F9.0°C 39.0°F3.9°C 70% 5.4 mph NE8.7 kmh NE 8.0 mph12.9 kmh 29.99 in1015.6 mb 0.00 in0.0 mm 0.00 in/hr0.0 mm/hr 0.03 in0.8 mm
03:51 PM 48.1°F8.9°C 38.9°F3.8°C 70% 6.0 mph NNE9.7 kmh NNE 8.0 mph12.9 kmh 29.99 in1015.6 mb 0.00 in0.0 mm 0.00 in/hr0.0 mm/hr 0.03 in0.8 mm
03:56 PM 47.7°F8.7°C 38.1°F3.4°C 69% 3.9 mph NE6.3 kmh NE 8.0 mph12.9 kmh 29.98 in1015.2 mb 0.00 in0.0 mm 0.00 in/hr0.0 mm/hr 0.03 in0.8 mm
04:01 PM 47.3°F8.5°C 38.1°F3.4°C 70% 4.9 mph NE7.9 kmh NE 8.0 mph12.9 kmh 29.98 in1015.2 mb 0.00 in0.0 mm 0.00 in/hr0.0 mm/hr 0.03 in0.8 mm
04:06 PM 47.2°F8.4°C 39.1°F3.9°C 73% 3.5 mph NE5.6 kmh NE 9.0 mph14.5 kmh 29.98 in1015.2 mb 0.00 in0.0 mm 0.00 in/hr0.0 mm/hr 0.03 in0.8 mm
04:11 PM 47.0°F8.3°C 38.9°F3.8°C 73% 5.2 mph NE8.4 kmh NE 10.0 mph16.1 kmh 29.99 in1015.6 mb 0.00 in0.0 mm 0.00 in/hr0.0 mm/hr 0.03 in0.8 mm
04:16 PM 46.9°F8.3°C 39.5°F4.2°C 75% 4.5 mph NE7.2 kmh NE 10.0 mph16.1 kmh 29.99 in1015.6 mb 0.00 in0.0 mm 0.00 in/hr0.0 mm/hr 0.03 in0.8 mm
04:21 PM 46.6°F8.1°C 39.5°F4.2°C 76% 3.3 mph NE5.3 kmh NE 10.0 mph16.1 kmh 29.99 in1015.6 mb 0.00 in0.0 mm 0.00 in/hr0.0 mm/hr 0.03 in0.8 mm
04:26 PM 46.4°F8.0°C 39.3°F4.1°C 76% 4.7 mph NE7.6 kmh NE 8.0 mph12.9 kmh 29.99 in1015.6 mb 0.00 in0.0 mm 0.00 in/hr0.0 mm/hr 0.03 in0.8 mm
04:31 PM 46.2°F7.9°C 38.8°F3.8°C 75% 1.6 mph E2.6 kmh E 8.0 mph12.9 kmh 29.99 in1015.6 mb 0.00 in0.0 mm 0.00 in/hr0.0 mm/hr 0.03 in0.8 mm
04:36 PM 46.0°F7.8°C 38.6°F3.7°C 75% 1.7 mph ENE2.7 kmh ENE 6.0 mph9.7 kmh 29.99 in1015.6 mb 0.00 in0.0 mm 0.00 in/hr0.0 mm/hr 0.03 in0.8 mm
04:41 PM 45.6°F7.6°C 38.9°F3.8°C 77% 4.1 mph NNE6.6 kmh NNE 6.0 mph9.7 kmh 30.00 in1015.9 mb 0.00 in0.0 mm 0.00 in/hr0.0 mm/hr 0.03 in0.8 mm
04:46 PM 45.3°F7.4°C 39.2°F4.0°C 79% 9.6 mph N15.4 kmh N 13.0 mph20.9 kmh 29.99 in1015.6 mb 0.00 in0.0 mm 0.00 in/hr0.0 mm/hr 0.03 in0.8 mm
04:51 PM 44.8°F7.1°C 39.3°F4.1°C 81% 5.9 mph NE9.5 kmh NE 13.0 mph20.9 kmh 29.98 in1015.2 mb 0.01 in0.3 mm 0.12 in/hr3.0 mm/hr 0.04 in1.0 mm
04:56 PM 44.6°F7.0°C 39.1°F3.9°C 81% 1.6 mph E2.6 kmh E 13.0 mph20.9 kmh 29.98 in1015.2 mb 0.01 in0.3 mm 0.00 in/hr0.0 mm/hr 0.04 in1.0 mm
05:01 PM 45.2°F7.3°C 39.4°F4.1°C 80% 3.5 mph SE5.6 kmh SE 7.0 mph11.3 kmh 29.98 in1015.2 mb 0.01 in0.3 mm 0.00 in/hr0.0 mm/hr 0.04 in1.0 mm
05:06 PM 45.3°F7.4°C 39.2°F4.0°C 79% 3.2 mph ESE5.1 kmh ESE 7.0 mph11.3 kmh 29.97 in1014.9 mb 0.01 in0.3 mm 0.00 in/hr0.0 mm/hr 0.04 in1.0 mm
05:11 PM 45.3°F7.4°C 38.6°F3.7°C 77% 3.9 mph SE6.3 kmh SE 7.0 mph11.3 kmh 29.97 in1014.9 mb 0.01 in0.3 mm 0.00 in/hr0.0 mm/hr 0.04 in1.0 mm
05:16 PM 45.3°F7.4°C 39.2°F4.0°C 79% 4.3 mph ESE6.9 kmh ESE 7.0 mph11.3 kmh 29.97 in1014.9 mb 0.01 in0.3 mm 0.00 in/hr0.0 mm/hr 0.04 in1.0 mm
05:21 PM 45.3°F7.4°C 39.5°F4.2°C 80% 4.2 mph SE6.8 kmh SE 7.0 mph11.3 kmh 29.98 in1015.2 mb 0.01 in0.3 mm 0.00 in/hr0.0 mm/hr 0.04 in1.0 mm
05:26 PM 45.4°F7.4°C 39.0°F3.9°C 78% 3.3 mph ESE5.3 kmh ESE 6.0 mph9.7 kmh 29.97 in1014.9 mb 0.01 in0.3 mm 0.00 in/hr0.0 mm/hr 0.04 in1.0 mm
05:31 PM 45.3°F7.4°C 38.9°F3.8°C 78% 2.1 mph E3.4 kmh E 5.0 mph8.0 kmh 29.97 in1014.9 mb 0.01 in0.3 mm 0.00 in/hr0.0 mm/hr 0.04 in1.0 mm
05:37 PM 45.2°F7.3°C 38.5°F3.6°C 77% 2.3 mph E3.7 kmh E 5.0 mph8.0 kmh 29.97 in1014.9 mb 0.01 in0.3 mm 0.00 in/hr0.0 mm/hr 0.04 in1.0 mm
05:42 PM 45.1°F7.3°C 38.7°F3.7°C 78% 2.0 mph ESE3.2 kmh ESE 5.0 mph8.0 kmh 29.97 in1014.9 mb 0.01 in0.3 mm 0.00 in/hr0.0 mm/hr 0.04 in1.0 mm
05:47 PM 45.0°F7.2°C 38.6°F3.7°C 78% 2.1 mph E3.4 kmh E 4.0 mph6.4 kmh 29.97 in1014.9 mb 0.00 in0.0 mm 0.00 in/hr0.0 mm/hr 0.04 in1.0 mm
05:52 PM 44.8°F7.1°C 38.4°F3.6°C 78% 2.2 mph E3.5 kmh E 4.0 mph6.4 kmh 29.97 in1014.9 mb 0.00 in0.0 mm 0.00 in/hr0.0 mm/hr 0.04 in1.0 mm
05:57 PM 44.7°F7.1°C 38.3°F3.5°C 78% 1.7 mph ESE2.7 kmh ESE 5.0 mph8.0 kmh 29.97 in1014.9 mb 0.00 in0.0 mm 0.00 in/hr0.0 mm/hr 0.04 in1.0 mm
06:02 PM 44.8°F7.1°C 38.4°F3.6°C 78% 1.9 mph ESE3.1 kmh ESE 5.0 mph8.0 kmh 29.97 in1014.9 mb 0.00 in0.0 mm 0.00 in/hr0.0 mm/hr 0.04 in1.0 mm
06:07 PM 44.8°F7.1°C 38.7°F3.7°C 79% 2.0 mph ESE3.2 kmh ESE 4.0 mph6.4 kmh 29.97 in1014.9 mb 0.00 in0.0 mm 0.00 in/hr0.0 mm/hr 0.04 in1.0 mm
06:12 PM 44.9°F7.2°C 38.8°F3.8°C 79% 1.4 mph ESE2.3 kmh ESE 3.0 mph4.8 kmh 29.97 in1014.9 mb 0.00 in0.0 mm 0.00 in/hr0.0 mm/hr 0.04 in1.0 mm
06:17 PM 45.0°F7.2°C 38.6°F3.7°C 78% 1.1 mph ESE1.8 kmh ESE 3.0 mph4.8 kmh 29.97 in1014.9 mb 0.00 in0.0 mm 0.00 in/hr0.0 mm/hr 0.04 in1.0 mm
06:22 PM 44.8°F7.1°C 38.7°F3.7°C 79% Calm Calm 2.0 mph3.2 kmh 29.97 in1014.9 mb 0.00 in0.0 mm 0.00 in/hr0.0 mm/hr 0.04 in1.0 mm
06:27 PM 44.7°F7.1°C 38.3°F3.5°C 78% Calm Calm -- 29.97 in1014.9 mb 0.00 in0.0 mm 0.00 in/hr0.0 mm/hr 0.04 in1.0 mm
06:32 PM 44.7°F7.1°C 38.3°F3.5°C 78% 1.4 mph ESE2.3 kmh ESE 2.0 mph3.2 kmh 29.97 in1014.9 mb 0.00 in0.0 mm 0.00 in/hr0.0 mm/hr 0.04 in1.0 mm
06:37 PM 44.5°F6.9°C 38.1°F3.4°C 78% 2.0 mph NE3.2 kmh NE 3.0 mph4.8 kmh 29.97 in1014.9 mb 0.00 in0.0 mm 0.00 in/hr0.0 mm/hr 0.04 in1.0 mm
06:42 PM 44.2°F6.8°C 38.1°F3.4°C 79% 1.9 mph NE3.1 kmh NE 4.0 mph6.4 kmh 29.97 in1014.9 mb 0.00 in0.0 mm 0.00 in/hr0.0 mm/hr 0.04 in1.0 mm
06:47 PM 44.1°F6.7°C 38.0°F3.3°C 79% 1.6 mph NE2.6 kmh NE 4.0 mph6.4 kmh 29.97 in1014.9 mb 0.00 in0.0 mm 0.00 in/hr0.0 mm/hr 0.04 in1.0 mm
06:52 PM 43.8°F6.6°C 38.1°F3.4°C 80% 1.0 mph NE1.6 kmh NE 3.0 mph4.8 kmh 29.97 in1014.9 mb 0.00 in0.0 mm 0.00 in/hr0.0 mm/hr 0.04 in1.0 mm
06:57 PM 43.7°F6.5°C 38.0°F3.3°C 80% 2.6 mph N4.2 kmh N 5.0 mph8.0 kmh 29.97 in1014.9 mb 0.00 in0.0 mm 0.00 in/hr0.0 mm/hr 0.04 in1.0 mm
07:02 PM 43.4°F6.3°C 37.7°F3.2°C 80% 1.3 mph NE2.1 kmh NE 5.0 mph8.0 kmh 29.98 in1015.2 mb 0.00 in0.0 mm 0.00 in/hr0.0 mm/hr 0.04 in1.0 mm
07:07 PM 43.3°F6.3°C 37.6°F3.1°C 80% 1.2 mph NE1.9 kmh NE 5.0 mph8.0 kmh 29.98 in1015.2 mb 0.00 in0.0 mm 0.00 in/hr0.0 mm/hr 0.04 in1.0 mm
07:12 PM 43.1°F6.2°C 37.4°F3.0°C 80% 1.0 mph NE1.6 kmh NE 3.0 mph4.8 kmh 29.98 in1015.2 mb 0.00 in0.0 mm 0.00 in/hr0.0 mm/hr 0.04 in1.0 mm
07:17 PM 43.0°F6.1°C 37.3°F2.9°C 80% 1.3 mph NE2.1 kmh NE 3.0 mph4.8 kmh 29.98 in1015.2 mb 0.00 in0.0 mm 0.00 in/hr0.0 mm/hr 0.04 in1.0 mm
07:22 PM 43.0°F6.1°C 37.6°F3.1°C 81% 1.0 mph NE1.6 kmh NE 3.0 mph4.8 kmh 29.99 in1015.6 mb 0.00 in0.0 mm 0.00 in/hr0.0 mm/hr 0.04 in1.0 mm
07:28 PM 42.9°F6.1°C 37.5°F3.1°C 81% 1.8 mph NE2.9 kmh NE 3.0 mph4.8 kmh 29.98 in1015.2 mb 0.00 in0.0 mm 0.00 in/hr0.0 mm/hr 0.04 in1.0 mm
07:33 PM 42.8°F6.0°C 37.4°F3.0°C 81% 1.7 mph NE2.7 kmh NE 3.0 mph4.8 kmh 29.98 in1015.2 mb 0.00 in0.0 mm 0.00 in/hr0.0 mm/hr 0.04 in1.0 mm
07:38 PM 42.7°F5.9°C 37.6°F3.1°C 82% 2.0 mph NE3.2 kmh NE 3.0 mph4.8 kmh 29.98 in1015.2 mb 0.00 in0.0 mm 0.00 in/hr0.0 mm/hr 0.04 in1.0 mm
07:43 PM 42.5°F5.8°C 37.1°F2.8°C 81% 1.8 mph E2.9 kmh E 3.0 mph4.8 kmh 29.98 in1015.2 mb 0.00 in0.0 mm 0.00 in/hr0.0 mm/hr 0.04 in1.0 mm
07:48 PM 42.4°F5.8°C 37.0°F2.8°C 81% 1.9 mph E3.1 kmh E 3.0 mph4.8 kmh 29.98 in1015.2 mb 0.00 in0.0 mm 0.00 in/hr0.0 mm/hr 0.04 in1.0 mm
07:53 PM 42.3°F5.7°C 37.2°F2.9°C 82% 2.1 mph E3.4 kmh E 3.0 mph4.8 kmh 29.98 in1015.2 mb 0.00 in0.0 mm 0.00 in/hr0.0 mm/hr 0.04 in1.0 mm
07:58 PM 42.3°F5.7°C 37.2°F2.9°C 82% 1.0 mph E1.6 kmh E 3.0 mph4.8 kmh 29.98 in1015.2 mb 0.00 in0.0 mm 0.00 in/hr0.0 mm/hr 0.04 in1.0 mm
08:03 PM 42.3°F5.7°C 36.9°F2.7°C 81% 1.3 mph E2.1 kmh E 2.0 mph3.2 kmh 29.99 in1015.6 mb 0.00 in0.0 mm 0.00 in/hr0.0 mm/hr 0.04 in1.0 mm
08:08 PM 42.3°F5.7°C 36.9°F2.7°C 81% 1.0 mph E1.6 kmh E 2.0 mph3.2 kmh 29.99 in1015.6 mb 0.00 in0.0 mm 0.00 in/hr0.0 mm/hr 0.04 in1.0 mm
08:13 PM 42.3°F5.7°C 36.9°F2.7°C 81% Calm Calm 1.0 mph1.6 kmh 29.99 in1015.6 mb 0.00 in0.0 mm 0.00 in/hr0.0 mm/hr 0.04 in1.0 mm
08:18 PM 42.4°F5.8°C 37.3°F2.9°C 82% Calm Calm 1.0 mph1.6 kmh 30.00 in1015.9 mb 0.00 in0.0 mm 0.00 in/hr0.0 mm/hr 0.04 in1.0 mm
08:23 PM 42.5°F5.8°C 37.4°F3.0°C 82% 1.9 mph E3.1 kmh E 3.0 mph4.8 kmh 30.00 in1015.9 mb 0.00 in0.0 mm 0.00 in/hr0.0 mm/hr 0.04 in1.0 mm
08:28 PM 42.6°F5.9°C 37.5°F3.1°C 82% 2.7 mph WSW4.3 kmh WSW 5.0 mph8.0 kmh 30.00 in1015.9 mb 0.02 in0.5 mm 0.24 in/hr6.1 mm/hr 0.06 in1.5 mm
08:33 PM 42.7°F5.9°C 37.9°F3.3°C 83% 2.5 mph WSW4.0 kmh WSW 5.0 mph8.0 kmh 30.01 in1016.3 mb 0.03 in0.8 mm 0.12 in/hr3.0 mm/hr 0.07 in1.8 mm
08:38 PM 42.7°F5.9°C 38.2°F3.4°C 84% 5.3 mph W8.5 kmh W 7.0 mph11.3 kmh 30.01 in1016.3 mb 0.05 in1.3 mm 0.24 in/hr6.1 mm/hr 0.09 in2.3 mm
08:43 PM 42.6°F5.9°C 38.1°F3.4°C 84% 5.7 mph WNW9.2 kmh WNW 8.0 mph12.9 kmh 30.01 in1016.3 mb 0.08 in2.0 mm 0.36 in/hr9.1 mm/hr 0.12 in3.0 mm
08:48 PM 42.6°F5.9°C 38.4°F3.6°C 85% 4.7 mph WNW7.6 kmh WNW 8.0 mph12.9 kmh 30.01 in1016.3 mb 0.10 in2.5 mm 0.24 in/hr6.1 mm/hr 0.14 in3.6 mm
08:54 PM 42.5°F5.8°C 38.3°F3.5°C 85% 6.9 mph W11.1 kmh W 10.0 mph16.1 kmh 30.02 in1016.6 mb 0.11 in2.8 mm 0.10 in/hr2.5 mm/hr 0.15 in3.8 mm
08:58 PM 42.3°F5.7°C 38.1°F3.4°C 85% 8.7 mph WNW14.0 kmh WNW 12.0 mph19.3 kmh 30.02 in1016.6 mb 0.13 in3.3 mm 0.30 in/hr7.6 mm/hr 0.17 in4.3 mm
09:04 PM 42.1°F5.6°C 37.9°F3.3°C 85% 8.2 mph W13.2 kmh W 12.0 mph19.3 kmh 30.03 in1016.9 mb 0.15 in3.8 mm 0.02 in/hr0.5 mm/hr 0.19 in4.8 mm
09:09 PM 42.0°F5.6°C 38.1°F3.4°C 86% 5.2 mph W8.4 kmh W 12.0 mph19.3 kmh 30.03 in1016.9 mb 0.16 in4.1 mm 0.12 in/hr3.0 mm/hr 0.20 in5.1 mm
09:14 PM 41.9°F5.5°C 38.0°F3.3°C 86% 3.1 mph W5.0 kmh W 9.0 mph14.5 kmh 30.03 in1016.9 mb 0.17 in4.3 mm 0.12 in/hr3.0 mm/hr 0.21 in5.3 mm
09:19 PM 42.0°F5.6°C 38.1°F3.4°C 86% 1.2 mph WSW1.9 kmh WSW 7.0 mph11.3 kmh 30.02 in1016.6 mb 0.18 in4.6 mm 0.12 in/hr3.0 mm/hr 0.22 in5.6 mm
09:24 PM 41.9°F5.5°C 38.0°F3.3°C 86% 1.6 mph WSW2.6 kmh WSW 3.0 mph4.8 kmh 30.01 in1016.3 mb 0.18 in4.6 mm 0.00 in/hr0.0 mm/hr 0.23 in5.8 mm
09:29 PM 41.9°F5.5°C 38.0°F3.3°C 86% 1.6 mph S2.6 kmh S 3.0 mph4.8 kmh 30.02 in1016.6 mb 0.17 in4.3 mm 0.00 in/hr0.0 mm/hr 0.23 in5.8 mm
09:34 PM 41.8°F5.4°C 37.6°F3.1°C 85% 2.4 mph SSE3.9 kmh SSE 5.0 mph8.0 kmh 30.01 in1016.3 mb 0.16 in4.1 mm 0.00 in/hr0.0 mm/hr 0.23 in5.8 mm
09:39 PM 41.7°F5.4°C 37.5°F3.1°C 85% 2.3 mph SSE3.7 kmh SSE 6.0 mph9.7 kmh 30.02 in1016.6 mb 0.14 in3.6 mm 0.00 in/hr0.0 mm/hr 0.23 in5.8 mm
09:44 PM 41.5°F5.3°C 37.0°F2.8°C 84% 3.4 mph SE5.5 kmh SE 6.0 mph9.7 kmh 30.01 in1016.3 mb 0.11 in2.8 mm 0.00 in/hr0.0 mm/hr 0.23 in5.8 mm
09:49 PM 41.4°F5.2°C 36.9°F2.7°C 84% 1.3 mph SE2.1 kmh SE 4.0 mph6.4 kmh 30.01 in1016.3 mb 0.09 in2.3 mm 0.00 in/hr0.0 mm/hr 0.23 in5.8 mm
09:54 PM 41.3°F5.2°C 36.5°F2.5°C 83% 1.2 mph SE1.9 kmh SE 3.0 mph4.8 kmh 30.02 in1016.6 mb 0.07 in1.8 mm 0.00 in/hr0.0 mm/hr 0.23 in5.8 mm
09:59 PM 41.2°F5.1°C 36.7°F2.6°C 84% 1.9 mph S3.1 kmh S 3.0 mph4.8 kmh 30.02 in1016.6 mb 0.06 in1.5 mm 0.00 in/hr0.0 mm/hr 0.23 in5.8 mm
10:04 PM 41.1°F5.1°C 36.6°F2.6°C 84% 5.2 mph WSW8.4 kmh WSW 8.0 mph12.9 kmh 30.02 in1016.6 mb 0.04 in1.0 mm 0.00 in/hr0.0 mm/hr 0.23 in5.8 mm
10:09 PM 41.1°F5.1°C 36.3°F2.4°C 83% 3.8 mph WSW6.1 kmh WSW 8.0 mph12.9 kmh 30.02 in1016.6 mb 0.03 in0.8 mm 0.00 in/hr0.0 mm/hr 0.23 in5.8 mm
10:14 PM 41.1°F5.1°C 36.3°F2.4°C 83% 2.6 mph SW4.2 kmh SW 6.0 mph9.7 kmh 30.02 in1016.6 mb 0.02 in0.5 mm 0.00 in/hr0.0 mm/hr 0.23 in5.8 mm
10:19 PM 41.2°F5.1°C 36.4°F2.4°C 83% 2.8 mph SW4.5 kmh SW 6.0 mph9.7 kmh 30.02 in1016.6 mb 0.01 in0.3 mm 0.00 in/hr0.0 mm/hr 0.23 in5.8 mm
10:24 PM 41.1°F5.1°C 36.3°F2.4°C 83% 2.7 mph SW4.3 kmh SW 5.0 mph8.0 kmh 30.02 in1016.6 mb 0.00 in0.0 mm 0.00 in/hr0.0 mm/hr 0.23 in5.8 mm
10:29 PM 40.9°F4.9°C 36.1°F2.3°C 83% 4.2 mph SW6.8 kmh SW 6.0 mph9.7 kmh 30.02 in1016.6 mb 0.00 in0.0 mm 0.00 in/hr0.0 mm/hr 0.23 in5.8 mm
10:34 PM 40.8°F4.9°C 36.0°F2.2°C 83% 3.2 mph SW5.1 kmh SW 6.0 mph9.7 kmh 30.02 in1016.6 mb 0.00 in0.0 mm 0.00 in/hr0.0 mm/hr 0.23 in5.8 mm
10:39 PM 40.6°F4.8°C 35.8°F2.1°C 83% 3.5 mph SW5.6 kmh SW 5.0 mph8.0 kmh 30.02 in1016.6 mb 0.00 in0.0 mm 0.00 in/hr0.0 mm/hr 0.23 in5.8 mm
10:44 PM 40.5°F4.7°C 35.7°F2.1°C 83% 3.7 mph SW6.0 kmh SW 6.0 mph9.7 kmh 30.02 in1016.6 mb 0.00 in0.0 mm 0.00 in/hr0.0 mm/hr 0.23 in5.8 mm
10:49 PM 40.4°F4.7°C 35.3°F1.8°C 82% 4.3 mph SW6.9 kmh SW 6.0 mph9.7 kmh 30.02 in1016.6 mb 0.00 in0.0 mm 0.00 in/hr0.0 mm/hr 0.23 in5.8 mm
10:54 PM 40.4°F4.7°C 35.6°F2.0°C 83% 3.2 mph SW5.1 kmh SW 6.0 mph9.7 kmh 30.02 in1016.6 mb 0.00 in0.0 mm 0.00 in/hr0.0 mm/hr 0.23 in5.8 mm
10:59 PM 40.3°F4.6°C 35.2°F1.8°C 82% 2.9 mph SW4.7 kmh SW 5.0 mph8.0 kmh 30.02 in1016.6 mb 0.00 in0.0 mm 0.00 in/hr0.0 mm/hr 0.23 in5.8 mm
11:04 PM 40.1°F4.5°C 35.0°F1.7°C 82% 2.2 mph SW3.5 kmh SW 5.0 mph8.0 kmh 30.03 in1016.9 mb 0.00 in0.0 mm 0.00 in/hr0.0 mm/hr 0.22 in5.6 mm
11:09 PM 39.8°F4.3°C 35.1°F1.7°C 83% 1.3 mph SW2.1 kmh SW 5.0 mph8.0 kmh 30.02 in1016.6 mb 0.00 in0.0 mm 0.00 in/hr0.0 mm/hr 0.22 in5.6 mm
11:14 PM 39.8°F4.3°C 35.1°F1.7°C 83% 2.1 mph SW3.4 kmh SW 3.0 mph4.8 kmh 30.03 in1016.9 mb 0.00 in0.0 mm 0.00 in/hr0.0 mm/hr 0.22 in5.6 mm
11:19 PM 39.8°F4.3°C 35.1°F1.7°C 83% 1.9 mph SW3.1 kmh SW 4.0 mph6.4 kmh 30.03 in1016.9 mb 0.00 in0.0 mm 0.00 in/hr0.0 mm/hr 0.22 in5.6 mm
11:24 PM 39.7°F4.3°C 35.0°F1.7°C 83% 1.4 mph SW2.3 kmh SW 4.0 mph6.4 kmh 30.03 in1016.9 mb 0.00 in0.0 mm 0.00 in/hr0.0 mm/hr 0.22 in5.6 mm
11:29 PM 39.8°F4.3°C 35.1°F1.7°C 83% 1.2 mph SW1.9 kmh SW 2.0 mph3.2 kmh 30.03 in1016.9 mb 0.00 in0.0 mm 0.00 in/hr0.0 mm/hr 0.22 in5.6 mm
11:34 PM 39.5°F4.2°C 34.8°F1.6°C 83% Calm Calm 2.0 mph3.2 kmh 30.02 in1016.6 mb 0.00 in0.0 mm 0.00 in/hr0.0 mm/hr 0.22 in5.6 mm
11:39 PM 39.5°F4.2°C 34.8°F1.6°C 83% Calm Calm 1.0 mph1.6 kmh 30.03 in1016.9 mb 0.00 in0.0 mm 0.00 in/hr0.0 mm/hr 0.22 in5.6 mm
11:44 PM 39.4°F4.1°C 35.0°F1.7°C 84% Calm Calm -- 30.03 in1016.9 mb 0.00 in0.0 mm 0.00 in/hr0.0 mm/hr 0.22 in5.6 mm
11:49 PM 39.2°F4.0°C 34.8°F1.6°C 84% 1.4 mph SW2.3 kmh SW 2.0 mph3.2 kmh 30.03 in1016.9 mb 0.00 in0.0 mm 0.00 in/hr0.0 mm/hr 0.22 in5.6 mm
11:54 PM 39.2°F4.0°C 34.8°F1.6°C 84% 1.1 mph SW1.8 kmh SW 2.0 mph3.2 kmh 30.03 in1016.9 mb 0.00 in0.0 mm 0.00 in/hr0.0 mm/hr 0.22 in5.6 mm
11:59 PM 39.2°F4.0°C 34.8°F1.6°C 84% 1.6 mph SW2.6 kmh SW 2.0 mph3.2 kmh 30.03 in1016.9 mb 0.00 in0.0 mm 0.00 in/hr0.0 mm/hr 0.22 in5.6 mm